SWR80 LSZH-CYYZ
Flight info
| Callsign | SWR80 |
|---|---|
| Flight time | N/A |
| Altitude | 34000 |
| Route | VEBIT T10 TORPA DCT REKLA DCT RLP DCT ROTSI DCT KOTUN DCT AMAXA DCT VESAN DCT RATUK DCT SOVAT/N0465F380 L613 SANDY DCT OKSAW DCT TEWXI DCT VATRY DCT TORLU DCT DOGAL/M081F390 DCT 55N020W 55N030W 55N040W 54N050W DCT NEEKO/N0464F400 N622E TAFFY DCT VILRO DCT SAVEX Q806 TUKIR IMEBA9 |
| Aircraft | A333/H-SDE3GHIJ2J3J5M1RVWXY/LB2D1 |
Departure
| Time | 2026-05-05 20:36 |
|---|---|
| Airport | Zürich Airport (LSZH) |
Arrival
| Time | N/A |
|---|---|
| Airport | Toronto Pearson International Airport (CYYZ) |
| Time | Latitude | Longitude | Altitude | Speed | Heading |
|---|---|---|---|---|---|
| 2026-05-05 20:14 | 47.46163 | 8.55683 | 1409 ft | 0 kts | 186° |
| 2026-05-05 20:23 | 47.46166 | 8.55684 | 1409 ft | 2 kts | 186° |
| 2026-05-05 20:24 | 47.46184 | 8.55687 | 1401 ft | 3 kts | 186° |
| 2026-05-05 20:24 | 47.46202 | 8.55690 | 1403 ft | 2 kts | 185° |
| 2026-05-05 20:24 | 47.46220 | 8.55688 | 1403 ft | 3 kts | 149° |
| 2026-05-05 20:24 | 47.46234 | 8.55670 | 1411 ft | 3 kts | 120° |
| 2026-05-05 20:25 | 47.46243 | 8.55644 | 1411 ft | 3 kts | 105° |
| 2026-05-05 20:25 | 47.46247 | 8.55619 | 1407 ft | 1 kts | 96° |
| 2026-05-05 20:25 | 47.46247 | 8.55616 | 1408 ft | 0 kts | 96° |
| 2026-05-05 20:27 | 47.46245 | 8.55644 | 1411 ft | 6 kts | 96° |
| 2026-05-05 20:27 | 47.46240 | 8.55718 | 1410 ft | 9 kts | 96° |
| 2026-05-05 20:27 | 47.46233 | 8.55812 | 1403 ft | 9 kts | 96° |
| 2026-05-05 20:27 | 47.46226 | 8.55915 | 1408 ft | 12 kts | 96° |
| 2026-05-05 20:28 | 47.46208 | 8.55990 | 1410 ft | 6 kts | 121° |
| 2026-05-05 20:28 | 47.46186 | 8.56026 | 1413 ft | 3 kts | 136° |
| 2026-05-05 20:28 | 47.46168 | 8.56051 | 1414 ft | 4 kts | 136° |
| 2026-05-05 20:28 | 47.46144 | 8.56084 | 1410 ft | 6 kts | 139° |
| 2026-05-05 20:29 | 47.46112 | 8.56126 | 1415 ft | 6 kts | 138° |
| 2026-05-05 20:29 | 47.46085 | 8.56164 | 1414 ft | 6 kts | 136° |
| 2026-05-05 20:29 | 47.46077 | 8.56175 | 1414 ft | 0 kts | 136° |
| 2026-05-05 20:32 | 47.46075 | 8.56177 | 1414 ft | 2 kts | 136° |
| 2026-05-05 20:32 | 47.46051 | 8.56211 | 1414 ft | 6 kts | 133° |
| 2026-05-05 20:32 | 47.46043 | 8.56267 | 1411 ft | 5 kts | 80° |
| 2026-05-05 20:33 | 47.46044 | 8.56272 | 1411 ft | 0 kts | 76° |
| 2026-05-05 20:34 | 47.46046 | 8.56280 | 1407 ft | 4 kts | 71° |
| 2026-05-05 20:34 | 47.46076 | 8.56342 | 1413 ft | 9 kts | 49° |
| 2026-05-05 20:34 | 47.46131 | 8.56408 | 1410 ft | 11 kts | 11° |
| 2026-05-05 20:35 | 47.46194 | 8.56356 | 1409 ft | 9 kts | 317° |
| 2026-05-05 20:35 | 47.46197 | 8.56352 | 1409 ft | 0 kts | 317° |
| 2026-05-05 20:35 | 47.46204 | 8.56343 | 1409 ft | 9 kts | 317° |
| 2026-05-05 20:35 | 47.46394 | 8.56086 | 1407 ft | 66 kts | 317° |
| 2026-05-05 20:36 | 47.46867 | 8.55442 | 1410 ft | 117 kts | 317° |
| 2026-05-05 20:36 | 47.47577 | 8.54471 | 1408 ft | 163 kts | 317° |
| 2026-05-05 20:36 | 47.48447 | 8.53270 | 1859 ft | 170 kts | 316° |
| 2026-05-05 20:36 | 47.49378 | 8.52191 | 2556 ft | 169 kts | 324° |
| 2026-05-05 20:37 | 47.50361 | 8.51275 | 3342 ft | 163 kts | 325° |
| 2026-05-05 20:37 | 47.51358 | 8.50350 | 3722 ft | 180 kts | 323° |
| 2026-05-05 20:37 | 47.52389 | 8.49099 | 3935 ft | 204 kts | 310° |
| 2026-05-05 20:37 | 47.53199 | 8.47240 | 4177 ft | 226 kts | 289° |
| 2026-05-05 20:38 | 47.53500 | 8.44937 | 4772 ft | 229 kts | 268° |
| 2026-05-05 20:38 | 47.53210 | 8.42683 | 5681 ft | 220 kts | 248° |
| 2026-05-05 20:38 | 47.52559 | 8.40704 | 6577 ft | 210 kts | 238° |
| 2026-05-05 20:38 | 47.51596 | 8.39093 | 7221 ft | 212 kts | 217° |
| 2026-05-05 20:39 | 47.50194 | 8.38146 | 7564 ft | 234 kts | 198° |
| 2026-05-05 20:39 | 47.48535 | 8.37563 | 7746 ft | 258 kts | 193° |
| 2026-05-05 20:39 | 47.46720 | 8.37024 | 8273 ft | 269 kts | 193° |
| 2026-05-05 20:39 | 47.44876 | 8.36470 | 9060 ft | 270 kts | 193° |
| 2026-05-05 20:40 | 47.43039 | 8.35900 | 9803 ft | 273 kts | 193° |
| 2026-05-05 20:40 | 47.41178 | 8.35286 | 10278 ft | 283 kts | 196° |
| 2026-05-05 20:40 | 47.39317 | 8.34047 | 10526 ft | 302 kts | 217° |
| 2026-05-05 20:40 | 47.37896 | 8.31706 | 10755 ft | 320 kts | 237° |
| 2026-05-05 20:41 | 47.36801 | 8.28783 | 11281 ft | 328 kts | 241° |
| 2026-05-05 20:41 | 47.35743 | 8.25730 | 11853 ft | 335 kts | 242° |
| 2026-05-05 20:41 | 47.34684 | 8.22675 | 12430 ft | 339 kts | 242° |
| 2026-05-05 20:41 | 47.33590 | 8.19549 | 13061 ft | 343 kts | 241° |
| 2026-05-05 20:42 | 47.32493 | 8.16439 | 13649 ft | 347 kts | 241° |
| 2026-05-05 20:42 | 47.31367 | 8.13262 | 14206 ft | 350 kts | 241° |
| 2026-05-05 20:42 | 47.30228 | 8.10049 | 14798 ft | 353 kts | 241° |
| 2026-05-05 20:42 | 47.29090 | 8.06847 | 15376 ft | 356 kts | 241° |
| 2026-05-05 20:43 | 47.27973 | 8.03554 | 15966 ft | 360 kts | 246° |
| 2026-05-05 20:43 | 47.27278 | 8.00036 | 16521 ft | 366 kts | 260° |
| 2026-05-05 20:43 | 47.27205 | 7.96252 | 17093 ft | 371 kts | 270° |
| 2026-05-05 20:43 | 47.27430 | 7.92416 | 17658 ft | 376 kts | 274° |
| 2026-05-05 20:44 | 47.27794 | 7.88629 | 18199 ft | 379 kts | 276° |
| 2026-05-05 20:44 | 47.28223 | 7.84752 | 18676 ft | 383 kts | 276° |
| 2026-05-05 20:44 | 47.28662 | 7.80847 | 19112 ft | 387 kts | 276° |
| 2026-05-05 20:44 | 47.29085 | 7.76950 | 19548 ft | 390 kts | 276° |
| 2026-05-05 20:45 | 47.29886 | 7.68998 | 20464 ft | 396 kts | 275° |
| 2026-05-05 20:45 | 47.30299 | 7.64960 | 20908 ft | 399 kts | 278° |
| 2026-05-05 20:45 | 47.30964 | 7.60942 | 21312 ft | 405 kts | 282° |
| 2026-05-05 20:46 | 47.31731 | 7.56986 | 21752 ft | 408 kts | 283° |
| 2026-05-05 20:46 | 47.32578 | 7.52942 | 22170 ft | 412 kts | 284° |
| 2026-05-05 20:46 | 47.33450 | 7.48939 | 22587 ft | 415 kts | 284° |
| 2026-05-05 20:46 | 47.34356 | 7.44839 | 23014 ft | 418 kts | 284° |
| 2026-05-05 20:47 | 47.35253 | 7.40778 | 23415 ft | 421 kts | 284° |
| 2026-05-05 20:47 | 47.36157 | 7.36647 | 23801 ft | 423 kts | 283° |
| 2026-05-05 20:47 | 47.37058 | 7.32506 | 24206 ft | 423 kts | 283° |
| 2026-05-05 20:47 | 47.37957 | 7.28340 | 24596 ft | 425 kts | 283° |
| 2026-05-05 20:48 | 47.38842 | 7.24223 | 24972 ft | 426 kts | 283° |
| 2026-05-05 20:48 | 47.39744 | 7.20017 | 25336 ft | 428 kts | 283° |
| 2026-05-05 20:48 | 47.40579 | 7.15845 | 25671 ft | 428 kts | 280° |
| 2026-05-05 20:48 | 47.41283 | 7.11555 | 26028 ft | 429 kts | 279° |
| 2026-05-05 20:49 | 47.41951 | 7.07240 | 26388 ft | 430 kts | 278° |
| 2026-05-05 20:49 | 47.42597 | 7.02904 | 26741 ft | 432 kts | 278° |
| 2026-05-05 20:49 | 47.43227 | 6.98593 | 27081 ft | 434 kts | 278° |
| 2026-05-05 20:49 | 47.43859 | 6.94227 | 27432 ft | 435 kts | 278° |
| 2026-05-05 20:50 | 47.44488 | 6.89863 | 27770 ft | 437 kts | 278° |
| 2026-05-05 20:50 | 47.45127 | 6.85435 | 28113 ft | 439 kts | 278° |
| 2026-05-05 20:50 | 47.45761 | 6.81051 | 28440 ft | 441 kts | 278° |
| 2026-05-05 20:50 | 47.46408 | 6.76567 | 28780 ft | 443 kts | 278° |
| 2026-05-05 20:51 | 47.47047 | 6.72136 | 29092 ft | 445 kts | 278° |
| 2026-05-05 20:51 | 47.47679 | 6.67636 | 29427 ft | 445 kts | 275° |
| 2026-05-05 20:51 | 47.48115 | 6.63136 | 29651 ft | 448 kts | 273° |
| 2026-05-05 20:51 | 47.48492 | 6.58537 | 29942 ft | 449 kts | 272° |
| 2026-05-05 20:52 | 47.48836 | 6.53976 | 30213 ft | 451 kts | 272° |
| 2026-05-05 20:52 | 47.49169 | 6.49310 | 30459 ft | 453 kts | 271° |
| 2026-05-05 20:52 | 47.49492 | 6.44697 | 30714 ft | 454 kts | 271° |
| 2026-05-05 20:52 | 47.49817 | 6.40020 | 30993 ft | 455 kts | 272° |
| 2026-05-05 20:53 | 47.50138 | 6.35408 | 31354 ft | 454 kts | 272° |
| 2026-05-05 20:53 | 47.50464 | 6.30727 | 31717 ft | 453 kts | 272° |
| 2026-05-05 20:53 | 47.50783 | 6.26136 | 32084 ft | 453 kts | 271° |
| 2026-05-05 20:53 | 47.51105 | 6.21475 | 32371 ft | 453 kts | 272° |
| 2026-05-05 20:54 | 47.51422 | 6.16862 | 32661 ft | 453 kts | 272° |
| 2026-05-05 20:54 | 47.51742 | 6.12197 | 32968 ft | 454 kts | 272° |
| 2026-05-05 20:54 | 47.52055 | 6.07603 | 33264 ft | 453 kts | 272° |
| 2026-05-05 20:54 | 47.52373 | 6.02911 | 33570 ft | 453 kts | 272° |
| 2026-05-05 20:55 | 47.52683 | 5.98302 | 33835 ft | 454 kts | 272° |
| 2026-05-05 20:55 | 47.53037 | 5.93700 | 33882 ft | 453 kts | 276° |
| 2026-05-05 20:55 | 47.54886 | 5.84792 | 33903 ft | 457 kts | 293° |
| 2026-05-05 20:56 | 47.58536 | 5.76993 | 33877 ft | 465 kts | 307° |
| 2026-05-05 20:56 | 47.62885 | 5.69841 | 33876 ft | 468 kts | 310° |
| 2026-05-05 20:57 | 47.67318 | 5.62821 | 33875 ft | 468 kts | 310° |
| 2026-05-05 20:57 | 47.71753 | 5.55729 | 33872 ft | 468 kts | 309° |
| 2026-05-05 20:58 | 47.76149 | 5.48613 | 33868 ft | 468 kts | 309° |
| 2026-05-05 20:58 | 47.80533 | 5.41472 | 33871 ft | 469 kts | 309° |
| 2026-05-05 20:59 | 47.84922 | 5.34300 | 33858 ft | 469 kts | 309° |
| 2026-05-05 20:59 | 47.89306 | 5.27119 | 33855 ft | 469 kts | 309° |
| 2026-05-05 21:00 | 47.93693 | 5.19915 | 33861 ft | 469 kts | 310° |
| 2026-05-05 21:00 | 47.98073 | 5.12705 | 33865 ft | 469 kts | 309° |
| 2026-05-05 21:01 | 48.02453 | 5.05477 | 33857 ft | 470 kts | 310° |
| 2026-05-05 21:01 | 48.06838 | 4.98217 | 33854 ft | 471 kts | 310° |
| 2026-05-05 21:02 | 48.11226 | 4.90931 | 33850 ft | 471 kts | 310° |
| 2026-05-05 21:02 | 48.14861 | 4.84874 | 33848 ft | 471 kts | 310° |
| 2026-05-05 21:03 | 48.19259 | 4.77537 | 33839 ft | 472 kts | 310° |
| 2026-05-05 21:03 | 48.23638 | 4.70214 | 33852 ft | 472 kts | 310° |
| 2026-05-05 21:04 | 48.28010 | 4.62880 | 33833 ft | 473 kts | 310° |
| 2026-05-05 21:04 | 48.32399 | 4.55497 | 33829 ft | 473 kts | 310° |
| 2026-05-05 21:05 | 48.36769 | 4.48121 | 33828 ft | 473 kts | 310° |
| 2026-05-05 21:05 | 48.41137 | 4.40729 | 33821 ft | 473 kts | 310° |
| 2026-05-05 21:06 | 48.45503 | 4.33323 | 33822 ft | 473 kts | 310° |
| 2026-05-05 21:06 | 48.49857 | 4.25915 | 33818 ft | 473 kts | 310° |
| 2026-05-05 21:07 | 48.54211 | 4.18485 | 33821 ft | 473 kts | 310° |
| 2026-05-05 21:07 | 48.58582 | 4.11004 | 33817 ft | 473 kts | 311° |
| 2026-05-05 21:08 | 48.62928 | 4.03545 | 33825 ft | 473 kts | 311° |
| 2026-05-05 21:08 | 48.67265 | 3.96084 | 33820 ft | 474 kts | 311° |
| 2026-05-05 21:09 | 48.71651 | 3.88685 | 33818 ft | 474 kts | 316° |
| 2026-05-05 21:09 | 48.76769 | 3.82404 | 33815 ft | 474 kts | 323° |
| 2026-05-05 21:10 | 48.82089 | 3.76521 | 33811 ft | 474 kts | 324° |
| 2026-05-05 21:10 | 48.87456 | 3.70696 | 33807 ft | 474 kts | 324° |
| 2026-05-05 21:11 | 48.92815 | 3.64850 | 33810 ft | 474 kts | 324° |
| 2026-05-05 21:11 | 48.98145 | 3.58993 | 33810 ft | 474 kts | 324° |
| 2026-05-05 21:12 | 49.03495 | 3.53086 | 33804 ft | 474 kts | 324° |
| 2026-05-05 21:12 | 49.08820 | 3.47193 | 33816 ft | 475 kts | 324° |
| 2026-05-05 21:13 | 49.14167 | 3.41257 | 33815 ft | 475 kts | 324° |
| 2026-05-05 21:13 | 49.19503 | 3.35318 | 33818 ft | 475 kts | 324° |
| 2026-05-05 21:14 | 49.24836 | 3.29366 | 33824 ft | 475 kts | 324° |
| 2026-05-05 21:14 | 49.30176 | 3.23391 | 33825 ft | 475 kts | 324° |
| 2026-05-05 21:15 | 49.35510 | 3.17407 | 33828 ft | 476 kts | 324° |
| 2026-05-05 21:15 | 49.40834 | 3.11417 | 33838 ft | 476 kts | 324° |
| 2026-05-05 21:16 | 49.46172 | 3.05394 | 33835 ft | 476 kts | 324° |
| 2026-05-05 21:16 | 49.51487 | 2.99381 | 33844 ft | 476 kts | 324° |
| 2026-05-05 21:17 | 49.56826 | 2.93325 | 33846 ft | 476 kts | 324° |
| 2026-05-05 21:17 | 49.62144 | 2.87275 | 33853 ft | 476 kts | 324° |
| 2026-05-05 21:18 | 49.67459 | 2.81213 | 33856 ft | 476 kts | 324° |
| 2026-05-05 21:18 | 49.72761 | 2.75147 | 33850 ft | 476 kts | 324° |
| 2026-05-05 21:19 | 49.78118 | 2.69017 | 33867 ft | 477 kts | 324° |
| 2026-05-05 21:19 | 49.83497 | 2.63016 | 33864 ft | 477 kts | 325° |
| 2026-05-05 21:20 | 49.88868 | 2.57079 | 33866 ft | 477 kts | 325° |
| 2026-05-05 21:20 | 49.94277 | 2.51075 | 33881 ft | 477 kts | 325° |
| 2026-05-05 21:21 | 49.99660 | 2.45068 | 33881 ft | 479 kts | 324° |
| 2026-05-05 21:21 | 50.05070 | 2.39007 | 33882 ft | 479 kts | 324° |
| 2026-05-05 21:22 | 50.10470 | 2.32940 | 33885 ft | 479 kts | 324° |
| 2026-05-05 21:22 | 50.15885 | 2.26838 | 33887 ft | 479 kts | 324° |
| 2026-05-05 21:23 | 50.21252 | 2.20773 | 33888 ft | 476 kts | 324° |
| 2026-05-05 21:23 | 50.26611 | 2.14702 | 33896 ft | 477 kts | 324° |
| 2026-05-05 21:24 | 50.31953 | 2.08633 | 33900 ft | 477 kts | 324° |
| 2026-05-05 21:24 | 50.37317 | 2.02488 | 33906 ft | 477 kts | 322° |
| 2026-05-05 21:25 | 50.42409 | 1.95859 | 33911 ft | 477 kts | 318° |
| 2026-05-05 21:25 | 50.47386 | 1.88934 | 33976 ft | 481 kts | 318° |
| 2026-05-05 21:26 | 50.49906 | 1.85419 | 34152 ft | 482 kts | 318° |
| 2026-05-05 21:26 | 50.52399 | 1.81964 | 34504 ft | 479 kts | 318° |
| 2026-05-05 21:26 | 50.54912 | 1.78495 | 34843 ft | 477 kts | 318° |
| 2026-05-05 21:26 | 50.57379 | 1.75101 | 35101 ft | 476 kts | 318° |
| 2026-05-05 21:27 | 50.59889 | 1.71650 | 35304 ft | 477 kts | 318° |
| 2026-05-05 21:27 | 50.62367 | 1.68242 | 35522 ft | 476 kts | 318° |
| 2026-05-05 21:27 | 50.64880 | 1.64782 | 35809 ft | 475 kts | 318° |
| 2026-05-05 21:27 | 50.67353 | 1.61372 | 36027 ft | 475 kts | 317° |
| 2026-05-05 21:28 | 50.72350 | 1.54455 | 36325 ft | 477 kts | 317° |
| 2026-05-05 21:28 | 50.74829 | 1.51013 | 36518 ft | 478 kts | 317° |
| 2026-05-05 21:28 | 50.77317 | 1.47555 | 36681 ft | 479 kts | 317° |
| 2026-05-05 21:29 | 50.79812 | 1.44082 | 36980 ft | 476 kts | 317° |
| 2026-05-05 21:29 | 50.82296 | 1.40623 | 37307 ft | 473 kts | 317° |
| 2026-05-05 21:29 | 50.84752 | 1.37197 | 37487 ft | 473 kts | 317° |
| 2026-05-05 21:29 | 50.87230 | 1.33737 | 37752 ft | 472 kts | 317° |
| 2026-05-05 21:30 | 50.89705 | 1.30277 | 37939 ft | 472 kts | 317° |
| 2026-05-05 21:30 | 50.92147 | 1.26859 | 37957 ft | 472 kts | 317° |
| 2026-05-05 21:30 | 50.97048 | 1.19982 | 37961 ft | 471 kts | 316° |
| 2026-05-05 21:31 | 51.01955 | 1.13074 | 37962 ft | 471 kts | 317° |
| 2026-05-05 21:31 | 51.06267 | 1.05357 | 37964 ft | 466 kts | 300° |
| 2026-05-05 21:32 | 51.09101 | 0.96154 | 37963 ft | 464 kts | 291° |
| 2026-05-05 21:32 | 51.11482 | 0.86613 | 38002 ft | 463 kts | 290° |
| 2026-05-05 21:33 | 51.13765 | 0.77064 | 38046 ft | 462 kts | 289° |
| 2026-05-05 21:33 | 51.16061 | 0.67510 | 38088 ft | 462 kts | 290° |
| 2026-05-05 21:34 | 51.18371 | 0.57958 | 38125 ft | 462 kts | 290° |
| 2026-05-05 21:34 | 51.20687 | 0.48379 | 38129 ft | 463 kts | 290° |
| 2026-05-05 21:35 | 51.22982 | 0.38852 | 38129 ft | 461 kts | 290° |
| 2026-05-05 21:35 | 51.25275 | 0.29283 | 38115 ft | 461 kts | 289° |
| 2026-05-05 21:36 | 51.27548 | 0.19751 | 38078 ft | 461 kts | 289° |